VA69 weather

Armada/Hoffler Business Center Heliport
Chesapeake, Virginia, United States

Public forecast

Using degrees Fahrenheit for public forecast. Weather courtesy of forecast.io.

METAR (pilot weather report)

Closest report is Norfolk International Airport, 6.5 nm (12.0 km) N. Retrieved 2019/04/25 20:51 UTC (30 minutes ago):

KORF 252051Z 03007KT 10SM CLR 22/17 A2981 RMK AO2 SLP093 T02170167 56004

TAF (pilot weather forecast)

Closest forecast is Norfolk International Airport, 6.5 nm (12.0 km) N. Retrieved 2019/04/25 18:42 UTC (3 hours ago):

TAF KORF 251740Z 2518/2618 06009KT P6SM SCT150 BKN250 FM252300 15007KT P6SM BKN200 FM260400 20007KT P6SM SCT120 BKN200 FM261500 19015G23KT P6SM VCSH OVC050